^^
Grace C. Lehan Memorial Weather Station Historical Data
Daily Summary for September 27, 2021 Units:  English    Metric   Both
Daily Weekly Monthly Yearly
  High: Low: Average:
Temperature: 77.9 °F 65.2 °F 69.6 °F
Dew Point: 67.6 °F 54.6 °F 64.7 °F
Humidity: 97% 46% 86%
Wind Speed: 8.4mph 0mph 1.2mph
Wind Gust: 21mph - -
Wind- - WNW
Pressure: 29.91 in 29.81 in -
Precipitation: 0.02 in    
 
 
Tabular Data for September 27, 2021
Time Temperature Dew Point Pressure Wind Wind Speed Wind Gust Humidity Rainfall Rate (Hourly) solar
00:04 67.7 °F 66.2 °F 29.81 in Calm     95% 0.01 in 0 W/m2
00:09 67.7 °F 66.2 °F 29.81 in Calm     95% 0.01 in 0 W/m2
00:14 67.7 °F 66.2 °F 29.82 in Calm     95% 0.01 in 0 W/m2
00:19 67.7 °F 66.2 °F 29.82 in Calm     95% 0.01 in 0 W/m2
00:24 67.8 °F 66.3 °F 29.82 in Calm     95% 0.01 in 0 W/m2
00:29 67.8 °F 66.3 °F 29.82 in West 0.1 mph 3 mph 95% 0.01 in 0 W/m2
00:34 67.8 °F 66.3 °F 29.82 in West 0.1 mph 3 mph 95% 0.01 in 0 W/m2
00:39 67.9 °F 66.5 °F 29.82 in Calm   3 mph 95.2% 0.00 in 0 W/m2
00:44 67.9 °F 66.5 °F 29.81 in Calm   3 mph 95.2% 0.00 in 0 W/m2
00:49 68 °F 66.8 °F 29.81 in West 0.1 mph 3 mph 96% 0.00 in 0 W/m2
00:54 68 °F 66.9 °F 29.81 in West 0.2 mph 3 mph 96% 0.00 in 0 W/m2
00:59 68.1 °F 66.9 °F 29.82 in West 0.2 mph 5 mph 96% 0.00 in 0 W/m2
01:04 68.1 °F 66.9 °F 29.82 in West 0.1 mph 5 mph 96% 0.00 in 0 W/m2
01:09 68.2 °F 67 °F 29.82 in Calm   2 mph 96% 0.00 in 0 W/m2
01:14 68.2 °F 67 °F 29.82 in West 0.6 mph 6 mph 96% 0.00 in 0 W/m2
01:19 68.2 °F 67 °F 29.82 in West 0.2 mph 6 mph 96% 0.00 in 0 W/m2
01:24 68.2 °F 67 °F 29.82 in Calm   6 mph 96% 0.00 in 0 W/m2
01:29 68.2 °F 67 °F 29.83 in Calm   6 mph 96% 0.00 in 0 W/m2
01:34 68.2 °F 67 °F 29.83 in Calm   6 mph 96% 0.00 in 0 W/m2
01:39 68.2 °F 67 °F 29.83 in Calm     96% 0.00 in 0 W/m2
01:44 68.2 °F 67 °F 29.83 in Calm     96% 0.00 in 0 W/m2
01:49 68.2 °F 67 °F 29.83 in Calm     96% 0.00 in 0 W/m2
01:54 68.2 °F 67 °F 29.83 in Calm     96% 0.00 in 0 W/m2
01:59 68.2 °F 67 °F 29.83 in Calm     96% 0.00 in 0 W/m2
02:04 68.3 °F 67.1 °F 29.83 in Calm     96% 0.00 in 0 W/m2
02:09 68.3 °F 67.1 °F 29.83 in Calm     96% 0.00 in 0 W/m2
02:14 68.3 °F 67.1 °F 29.83 in Calm     96% 0.00 in 0 W/m2
02:19 68.3 °F 67.1 °F 29.83 in Calm     96% 0.00 in 0 W/m2
02:24 68.3 °F 67.1 °F 29.83 in Calm     96% 0.00 in 0 W/m2
02:29 68.2 °F 67 °F 29.83 in Calm     96% 0.00 in 0 W/m2
02:34 68 °F 66.8 °F 29.83 in Calm     96% 0.00 in 0 W/m2
02:39 67.8 °F 66.6 °F 29.83 in Calm     96% 0.00 in 0 W/m2
02:44 67.5 °F 66.3 °F 29.83 in Calm     95.7% 0.00 in 0 W/m2
02:49 67.3 °F 65.8 °F 29.83 in Calm     95% 0.00 in 0 W/m2
02:54 67.1 °F 65.9 °F 29.83 in Calm     95.7% 0.00 in 0 W/m2
02:59 67.1 °F 65.9 °F 29.83 in Calm     96% 0.01 in 0 W/m2
03:04 67 °F 65.9 °F 29.83 in Calm     96% 0.01 in 0 W/m2
03:09 67 °F 65.8 °F 29.82 in Calm     96% 0.01 in 0 W/m2
03:14 66.9 °F 65.7 °F 29.82 in Calm     96% 0.01 in 0 W/m2
03:19 66.8 °F 65.6 °F 29.83 in Calm     96% 0.01 in 0 W/m2
03:24 66.8 °F 65.6 °F 29.83 in Calm     96% 0.01 in 0 W/m2
03:29 66.8 °F 65.6 °F 29.83 in Calm     96% 0.01 in 0 W/m2
03:34 66.8 °F 65.6 °F 29.83 in Calm     96% 0.01 in 0 W/m2
03:39 66.8 °F 65.6 °F 29.83 in Calm     96% 0.01 in 0 W/m2
03:44 66.8 °F 65.6 °F 29.83 in Calm     96% 0.01 in 0 W/m2
03:49 66.8 °F 65.6 °F 29.83 in Calm     96% 0.01 in 0 W/m2
03:54 66.8 °F 65.6 °F 29.83 in Calm     96% 0.01 in 0 W/m2
03:59 66.7 °F 65.6 °F 29.83 in Calm     96% 0.01 in 0 W/m2
04:00 66.7 °F 65.5 °F 29.82 in Calm     96% 0.01 in 0 W/m2
04:09 66.6 °F 65.4 °F 29.83 in Calm     96% 0.00 in 0 W/m2
04:14 66.5 °F 65.4 °F 29.83 in Calm     96% 0.00 in 0 W/m2
04:19 66.5 °F 65.3 °F 29.83 in Calm     96% 0.00 in 0 W/m2
04:24 66.5 °F 65.3 °F 29.83 in Calm     96% 0.00 in 0 W/m2
04:29 66.5 °F 65.4 °F 29.83 in Calm     96% 0.00 in 0 W/m2
04:34 66.5 °F 65.4 °F 29.83 in Calm     96% 0.01 in 0 W/m2
04:39 66.5 °F 65.4 °F 29.83 in Calm     96% 0.01 in 0 W/m2
04:44 66.5 °F 65.3 °F 29.83 in Calm     96% 0.01 in 0 W/m2
04:49 66.5 °F 65.3 °F 29.83 in Calm     96% 0.01 in 0 W/m2
04:54 66.5 °F 65.3 °F 29.82 in Calm     96% 0.01 in 0 W/m2
04:59 66.5 °F 65.3 °F 29.82 in Calm     96% 0.01 in 0 W/m2
05:04 66.5 °F 65.3 °F 29.82 in Calm     96% 0.01 in 0 W/m2
05:09 66.5 °F 65.3 °F 29.82 in Calm     96% 0.01 in 0 W/m2
05:14 66.5 °F 65.3 °F 29.82 in Calm     96% 0.01 in 0 W/m2
05:19 66.4 °F 65.3 °F 29.82 in Calm     96% 0.01 in 0 W/m2
05:24 66.4 °F 65.2 °F 29.83 in Calm     96% 0.01 in 0 W/m2
05:29 66.3 °F 65.1 °F 29.83 in Calm     96% 0.01 in 0 W/m2
05:34 66.3 °F 65.1 °F 29.83 in Calm     96% 0.01 in 0 W/m2
05:39 66.2 °F 65 °F 29.83 in Calm     96% 0.01 in 0 W/m2
05:44 66.1 °F 64.9 °F 29.84 in Calm     96% 0.01 in 0 W/m2
05:49 66 °F 64.8 °F 29.84 in Calm     96% 0.01 in 0 W/m2
05:54 65.8 °F 64.6 °F 29.84 in Calm     96% 0.01 in 5 W/m2
05:59 65.6 °F 64.4 °F 29.84 in Calm     96% 0.01 in 7 W/m2
06:04 65.4 °F 64.2 °F 29.85 in Calm     96% 0.01 in 11 W/m2
06:09 65.3 °F 64.1 °F 29.85 in Calm     96% 0.00 in 21 W/m2
06:14 65.2 °F 64 °F 29.85 in Calm     96% 0.00 in 25 W/m2
06:19 65.2 °F 64 °F 29.85 in Calm     96% 0.00 in 28 W/m2
06:24 65.3 °F 64.1 °F 29.85 in Calm     96% 0.00 in 35 W/m2
06:29 65.3 °F 64.1 °F 29.85 in Calm     96% 0.00 in 42 W/m2
06:34 65.4 °F 64.3 °F 29.85 in Calm     96% 0.00 in 44 W/m2
06:39 65.7 °F 64.6 °F 29.86 in West 0.1 mph 3 mph 96.3% 0.00 in 49 W/m2
06:44 66 °F 65.1 °F 29.86 in Calm   3 mph 97% 0.00 in 54 W/m2
06:49 66.2 °F 65.3 °F 29.86 in Calm   3 mph 97% 0.00 in 58 W/m2
06:54 66.4 °F 65.5 °F 29.86 in Calm   3 mph 97% 0.00 in 60 W/m2
06:59 66.7 °F 65.8 °F 29.86 in Calm   3 mph 97% 0.00 in 62 W/m2
07:04 67 °F 66.1 °F 29.86 in Calm   3 mph 97% 0.00 in 65 W/m2
07:09 67.3 °F 66.4 °F 29.86 in Calm     97% 0.00 in 69 W/m2
07:14 67.7 °F 66.6 °F 29.86 in Calm     96.4% 0.00 in 98 W/m2
07:19 68.2 °F 67 °F 29.87 in Calm     96% 0.00 in 267 W/m2
07:24 68.7 °F 67.4 °F 29.87 in Calm     95.6% 0.00 in 290 W/m2
07:29 69.3 °F 67.6 °F 29.87 in Calm     94.6% 0.00 in 315 W/m2
07:34 69.8 °F 67.5 °F 29.87 in Calm   1 mph 92.4% 0.00 in 338 W/m2
07:39 70.3 °F 67.1 °F 29.87 in Calm   1 mph 89.5% 0.00 in 345 W/m2
07:44 70.8 °F 66.7 °F 29.87 in Calm   3 mph 86.8% 0.00 in 359 W/m2
07:49 71.2 °F 66 °F 29.87 in West 0.4 mph 5 mph 83.8% 0.00 in 387 W/m2
07:54 71.5 °F 66.3 °F 29.87 in NW 0.8 mph 7 mph 83.6% 0.00 in 408 W/m2
07:59 71.9 °F 65.6 °F 29.88 in NW 2.4 mph 10 mph 80.3% 0.00 in 424 W/m2
08:00 72.2 °F 65.3 °F 29.87 in Calm   10 mph 79% 0.00 in 427 W/m2
08:09 72.8 °F 65.7 °F 29.88 in WNW 1.2 mph 6 mph 78.5% 0.00 in 459 W/m2
08:14 73 °F 65.3 °F 29.88 in WNW 2.8 mph 12 mph 76.7% 0.00 in 475 W/m2
08:19 73.2 °F 64 °F 29.88 in WNW 4.9 mph 12 mph 72.9% 0.00 in 494 W/m2
08:24 73.3 °F 63.8 °F 29.88 in WNW 3.8 mph 12 mph 72.2% 0.00 in 512 W/m2
08:29 73.5 °F 63.4 °F 29.88 in NW 2.2 mph 12 mph 70.7% 0.00 in 526 W/m2
08:34 73.5 °F 63.5 °F 29.88 in NW 3.5 mph 12 mph 71% 0.00 in 545 W/m2
08:39 73.6 °F 63.5 °F 29.88 in NW 3.1 mph 12 mph 70.6% 0.00 in 563 W/m2
08:44 73.8 °F 63.2 °F 29.88 in WNW 2.6 mph 12 mph 69.5% 0.00 in 578 W/m2
08:49 74.1 °F 63.4 °F 29.88 in WNW 3.4 mph 12 mph 69.4% 0.00 in 592 W/m2
08:54 74.3 °F 63.1 °F 29.88 in WNW 2.5 mph 12 mph 68% 0.00 in 608 W/m2
08:59 74.5 °F 63.4 °F 29.88 in WNW 1.7 mph 12 mph 68.3% 0.00 in 626 W/m2
09:04 75 °F 64.4 °F 29.88 in NW 0.9 mph 12 mph 69.6% 0.00 in 643 W/m2
09:09 75.5 °F 63.9 °F 29.88 in WNW 2.7 mph 7 mph 67.2% 0.00 in 654 W/m2
09:14 75.8 °F 64.3 °F 29.88 in WNW 1.9 mph 7 mph 67.4% 0.00 in 666 W/m2
09:19 76 °F 64.2 °F 29.89 in NW 2.6 mph 11 mph 66.9% 0.00 in 694 W/m2
09:24 76.3 °F 63.9 °F 29.89 in NW 3.5 mph 11 mph 65.4% 0.00 in 696 W/m2
09:29 76.6 °F 63.1 °F 29.89 in WNW 3.9 mph 11 mph 63.1% 0.00 in 715 W/m2
09:34 76.6 °F 62.9 °F 29.89 in NW 3 mph 13 mph 62.7% 0.00 in 733 W/m2
09:39 76.5 °F 62.4 °F 29.89 in NW 3.5 mph 13 mph 61.7% 0.00 in 758 W/m2
09:44 76.5 °F 63.4 °F 29.89 in NW 0.9 mph 13 mph 63.9% 0.00 in 763 W/m2
09:49 76.7 °F 62.3 °F 29.89 in West 6.5 mph 13 mph 61.1% 0.00 in 772 W/m2
09:54 76.5 °F 61 °F 29.90 in WNW 7.1 mph 15 mph 58.7% 0.00 in 779 W/m2
09:59 76.4 °F 61.1 °F 29.90 in WNW 3 mph 15 mph 59.3% 0.00 in 788 W/m2
10:04 76.6 °F 62.3 °F 29.90 in NW 1.4 mph 15 mph 61.4% 0.00 in 800 W/m2
10:09 76.8 °F 60.7 °F 29.90 in WNW 5.6 mph 13 mph 57.6% 0.00 in 817 W/m2
10:14 76.7 °F 59.1 °F 29.90 in WNW 8.1 mph 16 mph 54.5% 0.00 in 833 W/m2
10:19 76.4 °F 58.5 °F 29.90 in WNW 5.7 mph 16 mph 53.8% 0.00 in 842 W/m2
10:24 76.3 °F 58.4 °F 29.90 in NW 6.6 mph 17 mph 53.9% 0.00 in 853 W/m2
10:29 76.3 °F 58 °F 29.90 in NW 6.6 mph 17 mph 53.2% 0.00 in 865 W/m2
10:34 76.6 °F 58.5 °F 29.90 in WNW 3.7 mph 17 mph 53.5% 0.00 in 874 W/m2
10:39 76.8 °F 57.2 °F 29.91 in WNW 6.5 mph 15 mph 50.9% 0.00 in 884 W/m2
10:44 76.8 °F 57.4 °F 29.91 in NW 4.9 mph 15 mph 51.1% 0.00 in 893 W/m2
10:48 76.9 °F 56.9 °F 29.91 in WNW 8.4 mph 19 mph 50.1% 0.00 in 902 W/m2
11:00 76.4 °F 55.8 °F 29.91 in NW 7 mph 21 mph 49% 0.00 in 894 W/m2
11:30 76.9 °F 54.6 °F 29.91 in NW 8 mph 19 mph 46% 0.00 in 949 W/m2
12:03 77.9 °F 56.1 °F 29.91 in NW 5 mph 8 mph 47% 0.00 in 995 W/m2
Hartford County Weather
Compliments of Weather Underground - 2 mb